createdAt,value
2019-03-10T00:00:02.019Z,1012.8
2019-03-10T00:05:02.072Z,1012.8
2019-03-10T00:10:01.737Z,1012.8
2019-03-10T00:15:02.013Z,1012.9
2019-03-10T00:20:01.901Z,1012.7
2019-03-10T00:25:02.102Z,1012.6
2019-03-10T00:30:01.886Z,1012.5
2019-03-10T00:35:02.047Z,1012.4
2019-03-10T00:40:01.733Z,1012.3
2019-03-10T00:45:02.117Z,1012.2
2019-03-10T00:50:01.891Z,1012.2
2019-03-10T00:55:01.778Z,1012.2
2019-03-10T01:00:02.037Z,1012.2
2019-03-10T01:05:02.148Z,1012.1
2019-03-10T01:10:01.900Z,1012
2019-03-10T01:15:02.056Z,1011.9
2019-03-10T01:20:02.604Z,1011.8
2019-03-10T01:25:02.372Z,1011.6
2019-03-10T01:30:02.507Z,1011.3
2019-03-10T01:35:02.106Z,1011.2
2019-03-10T01:40:03.134Z,1011
2019-03-10T01:45:02.361Z,1010.8
2019-03-10T01:50:02.310Z,1010.6
2019-03-10T01:55:01.972Z,1010.5
2019-03-10T02:00:02.317Z,1010.5
2019-03-10T02:05:03.579Z,1010.5
2019-03-10T02:10:03.186Z,1010.3
2019-03-10T02:15:02.423Z,1010.1
2019-03-10T02:20:04.182Z,1010
2019-03-10T02:25:02.852Z,1009.9
2019-03-10T02:30:01.858Z,1009.7
2019-03-10T02:35:02.313Z,1009.6
2019-03-10T02:40:01.901Z,1009.5
2019-03-10T02:45:02.034Z,1009.4
2019-03-10T02:50:01.995Z,1009.3
2019-03-10T02:55:01.970Z,1009.2
2019-03-10T03:00:02.220Z,1009.1
2019-03-10T03:05:02.458Z,1008.9
2019-03-10T03:10:03.034Z,1008.7
2019-03-10T03:15:03.071Z,1008.6
2019-03-10T03:20:02.319Z,1008.5
2019-03-10T03:25:02.039Z,1008.3
2019-03-10T03:30:02.191Z,1008.1
2019-03-10T03:35:02.856Z,1008
2019-03-10T03:40:01.937Z,1007.9
2019-03-10T03:45:01.921Z,1007.8
2019-03-10T03:50:01.740Z,1007.7
2019-03-10T03:55:02.427Z,1007.4
2019-03-10T04:00:02.021Z,1007.4
2019-03-10T04:05:01.933Z,1007.2
2019-03-10T04:10:01.858Z,1007.2
2019-03-10T04:15:03.133Z,1007
2019-03-10T04:20:01.657Z,1006.9
2019-03-10T04:25:01.743Z,1006.7
2019-03-10T04:30:01.806Z,1006.5
2019-03-10T04:35:01.642Z,1006.3
2019-03-10T04:40:03.427Z,1006.2
2019-03-10T04:45:01.693Z,1006
2019-03-10T04:50:01.765Z,1005.8
2019-03-10T04:55:01.612Z,1005.7
2019-03-10T05:00:01.948Z,1005.7
2019-03-10T05:05:01.680Z,1005.5
2019-03-10T05:10:01.707Z,1005.4
2019-03-10T05:15:01.578Z,1005.4
2019-03-10T05:20:01.456Z,1005.3
2019-03-10T05:25:01.689Z,1005.1
2019-03-10T05:30:01.576Z,1004.9
2019-03-10T05:35:01.588Z,1004.9
2019-03-10T05:40:01.526Z,1004.7
2019-03-10T05:45:01.796Z,1004.6
2019-03-10T05:50:01.469Z,1004.3
2019-03-10T05:55:01.756Z,1004.2
2019-03-10T06:00:01.796Z,1004.1
2019-03-10T06:05:01.337Z,1003.9
2019-03-10T06:10:01.584Z,1003.8
2019-03-10T06:15:01.582Z,1003.7
2019-03-10T06:20:01.663Z,1003.5
2019-03-10T06:25:01.478Z,1003.4
2019-03-10T06:30:01.439Z,1003.3
2019-03-10T06:35:01.410Z,1003.1
2019-03-10T06:40:01.513Z,1002.8
2019-03-10T06:45:01.454Z,1002.7
2019-03-10T06:50:01.527Z,1002.6
2019-03-10T06:55:01.213Z,1002.6
2019-03-10T07:00:01.542Z,1002.6
2019-03-10T07:05:01.299Z,1002.5
2019-03-10T07:10:01.454Z,1002.4
2019-03-10T07:15:01.667Z,1002.3
2019-03-10T07:20:01.142Z,1002.2
2019-03-10T07:25:02.131Z,1002.1
2019-03-10T07:30:01.427Z,1002
2019-03-10T07:35:01.398Z,1001.9
2019-03-10T07:40:01.429Z,1001.8
2019-03-10T07:45:01.615Z,1001.9
2019-03-10T07:50:01.332Z,1001.7
2019-03-10T07:55:01.267Z,1001.6
2019-03-10T08:00:01.464Z,1001.6
2019-03-10T08:05:01.416Z,1001.4
2019-03-10T08:10:01.096Z,1001.5
2019-03-10T08:15:01.462Z,1001.4
2019-03-10T08:20:01.109Z,1001.5
2019-03-10T08:25:01.303Z,1001.3
2019-03-10T08:30:01.438Z,1001.3
2019-03-10T08:35:01.435Z,1001.1
2019-03-10T08:40:02.234Z,1000.8
2019-03-10T08:45:01.349Z,1000.7
2019-03-10T08:50:01.361Z,1000.5
2019-03-10T08:55:01.254Z,1000.5
2019-03-10T09:00:01.467Z,1000.5
2019-03-10T09:05:01.189Z,999.9
2019-03-10T09:10:01.494Z,999.7
2019-03-10T09:15:01.179Z,999.6
2019-03-10T09:20:01.115Z,999.4
2019-03-10T09:25:01.314Z,999.3
2019-03-10T09:30:01.377Z,999
2019-03-10T09:35:01.230Z,998.9
2019-03-10T09:40:01.016Z,998.7
2019-03-10T09:45:01.250Z,998.6
2019-03-10T09:50:01.468Z,998.6
2019-03-10T09:55:01.794Z,998.4
2019-03-10T10:00:01.320Z,998.3
2019-03-10T10:05:01.015Z,998.3
2019-03-10T10:10:01.361Z,998.2
2019-03-10T10:15:01.250Z,998.1
2019-03-10T10:20:01.597Z,997.9
2019-03-10T10:25:01.298Z,997.8
2019-03-10T10:30:01.006Z,997.8
2019-03-10T10:35:01.081Z,997.8
2019-03-10T10:40:01.083Z,997.6
2019-03-10T10:45:01.119Z,997.6
2019-03-10T10:50:00.998Z,997.5
2019-03-10T10:55:01.976Z,997.5
2019-03-10T11:00:01.226Z,997.5
2019-03-10T11:05:00.968Z,997.4
2019-03-10T11:10:01.016Z,997.3
2019-03-10T11:15:00.813Z,997.3
2019-03-10T11:20:01.113Z,997.2
2019-03-10T11:25:01.194Z,997
2019-03-10T11:30:00.876Z,996.9
2019-03-10T11:35:00.877Z,996.8
2019-03-10T11:40:01.098Z,996.8
2019-03-10T11:45:00.854Z,996.7
2019-03-10T11:50:00.822Z,996.7
2019-03-10T11:55:01.067Z,996.8
2019-03-10T12:00:01.184Z,996.6
2019-03-10T12:05:00.863Z,996.6
2019-03-10T12:10:00.970Z,996.7
2019-03-10T12:15:01.035Z,996.7
2019-03-10T12:20:01.102Z,996.8
2019-03-10T12:25:00.728Z,996.7
2019-03-10T12:30:01.333Z,996.8
2019-03-10T12:35:00.774Z,997.2
2019-03-10T12:40:01.191Z,997.1
2019-03-10T12:45:00.928Z,997
2019-03-10T12:50:00.881Z,997.1
2019-03-10T12:55:00.827Z,997.3
2019-03-10T13:00:00.795Z,997.3
2019-03-10T13:05:00.907Z,997.5
2019-03-10T13:10:01.078Z,997.2
2019-03-10T13:15:01.187Z,997.2
2019-03-10T13:20:01.164Z,997.1
2019-03-10T13:25:00.714Z,997.1
2019-03-10T13:30:01.921Z,997.1
2019-03-10T13:35:00.898Z,997.5
2019-03-10T13:40:00.917Z,997.9
2019-03-10T13:45:01.737Z,998.3
2019-03-10T13:50:01.037Z,999
2019-03-10T13:55:00.681Z,1000
2019-03-10T14:00:00.795Z,1000.6
2019-03-10T14:05:01.074Z,1001.3
2019-03-10T14:10:00.627Z,1001.9
2019-03-10T14:15:00.653Z,1002.6
2019-03-10T14:20:00.576Z,1003.1
2019-03-10T14:25:00.946Z,1003.6
2019-03-10T14:30:00.725Z,1004.1
2019-03-10T14:35:00.842Z,1004.5
2019-03-10T14:40:00.828Z,1004.8
2019-03-10T14:45:00.484Z,1005.2
2019-03-10T14:50:00.554Z,1005.6
2019-03-10T14:55:01.067Z,1005.9
2019-03-10T15:10:13.424Z,1006.6
2019-03-10T15:15:06.760Z,1006.8
2019-03-10T15:20:06.517Z,1006.9
2019-03-10T15:25:06.758Z,1007.1
2019-03-10T15:30:06.725Z,1007.3
2019-03-10T15:35:06.780Z,1007.4
2019-03-10T15:40:06.496Z,1007.6
2019-03-10T15:45:06.863Z,1007.7
2019-03-10T15:50:06.626Z,1007.9
2019-03-10T15:55:06.526Z,1008
2019-03-10T16:00:06.696Z,1008.2
2019-03-10T16:05:06.771Z,1008.4
2019-03-10T16:10:06.613Z,1008.4
2019-03-10T16:15:06.682Z,1008.6
2019-03-10T16:20:06.784Z,1008.6
2019-03-10T16:25:06.482Z,1008.7
2019-03-10T16:30:06.984Z,1008.8
2019-03-10T16:35:07.143Z,1008.9
2019-03-10T16:40:07.009Z,1009
2019-03-10T16:45:06.739Z,1009.1
2019-03-10T16:50:06.925Z,1009.3
2019-03-10T16:55:06.987Z,1009.4
2019-03-10T17:00:08.139Z,1009.6
2019-03-10T17:05:06.340Z,1009.9
2019-03-10T17:10:07.834Z,1010.5
2019-03-10T17:15:06.670Z,1011
2019-03-10T17:20:06.810Z,1010.2
2019-03-10T17:25:06.823Z,1010.4
2019-03-10T17:30:06.394Z,1010.5
2019-03-10T17:35:06.281Z,1010.5
2019-03-10T17:40:06.482Z,1010.5
2019-03-10T17:45:06.455Z,1010.6
2019-03-10T17:50:06.519Z,1010.8
2019-03-10T17:55:06.830Z,1010.8
2019-03-10T18:00:06.565Z,1010.9
2019-03-10T18:15:14.977Z,1010.8
2019-03-10T18:20:06.086Z,1010.8
2019-03-10T18:25:06.207Z,1010.9
2019-03-10T18:30:06.290Z,1010.9
2019-03-10T18:35:06.373Z,1011.1
2019-03-10T18:40:06.160Z,1011.4
2019-03-10T18:45:06.027Z,1011.8
2019-03-10T18:50:06.050Z,1011.8
2019-03-10T18:55:07.436Z,1012
2019-03-10T19:00:06.406Z,1011.8
2019-03-10T19:05:06.058Z,1011.8
2019-03-10T19:10:06.655Z,1011.9
2019-03-10T19:20:15.210Z,1011.9
2019-03-10T19:25:06.756Z,1011.9
2019-03-10T19:30:06.407Z,1011.9
2019-03-10T19:35:06.592Z,1011.9
2019-03-10T19:40:07.053Z,1012
2019-03-10T19:45:06.655Z,1012
2019-03-10T19:50:06.586Z,1012
2019-03-10T19:55:06.670Z,1011.9
2019-03-10T20:00:06.707Z,1012
2019-03-10T20:05:06.719Z,1011.9
2019-03-10T20:10:06.686Z,1011.9
2019-03-10T20:15:07.001Z,1011.9
2019-03-10T20:20:06.700Z,1012.1
2019-03-10T20:25:06.392Z,1012.2
2019-03-10T20:30:06.402Z,1012.2
2019-03-10T20:35:06.539Z,1012.2
2019-03-10T20:40:07.526Z,1012.1
2019-03-10T20:45:06.243Z,1012.2
2019-03-10T20:50:07.213Z,1012.2
2019-03-10T20:55:06.341Z,1012.2
2019-03-10T21:00:06.555Z,1012.2
2019-03-10T21:05:06.667Z,1012.3
2019-03-10T21:10:06.424Z,1012.2
2019-03-10T21:15:06.999Z,1012.2
2019-03-10T21:20:06.699Z,1012.2
2019-03-10T21:25:06.562Z,1012.2
2019-03-10T21:30:07.103Z,1012.2
2019-03-10T21:35:16.885Z,1012.2
2019-03-10T21:40:06.363Z,1012.2
2019-03-10T21:45:06.615Z,1012.2
2019-03-10T21:50:06.810Z,1012.2
2019-03-10T21:55:06.792Z,1012.1
2019-03-10T22:00:06.837Z,1012.1
2019-03-10T22:15:18.341Z,1011.9
2019-03-10T22:21:12.086Z,1011.8
2019-03-10T22:25:12.858Z,1011.8
2019-03-10T22:30:10.406Z,1012
2019-03-10T22:35:07.192Z,1011.8
2019-03-10T22:40:07.014Z,1011.8
2019-03-10T22:55:19.188Z,1011.9
2019-03-10T23:00:07.632Z,1011.8
2019-03-10T23:05:07.284Z,1011.8
2019-03-10T23:10:07.275Z,1011.7
2019-03-10T23:15:06.899Z,1011.7
2019-03-10T23:20:07.361Z,1011.7
2019-03-10T23:25:06.876Z,1011.7
2019-03-10T23:30:06.958Z,1011.9
2019-03-10T23:35:06.669Z,1011.9
2019-03-10T23:40:08.073Z,1012
2019-03-10T23:56:27.710Z,1012.1
